メインページ
METAR-TAF:

METAR-TAF

空港 :

クウェート国際空港

クウェート, クウェート

緯度: 29-13N, 経度: 047-59E, 海抜: 55m

現時点の気象観測

当レポートは15分前の18:00(UTC)に作成
の風 7kt
気温 21°C
湿度 78%
気圧 1015 hPa
視程: 7000m
高度4000ftの雲は散在している
高度8000ftの千切れ雲あり

METAR: OKBK 171800Z 35007KT 7000 SCT040 BKN080 21/17 Q1015 NOSIG

時間: 21:15 (18:15 UTC)

予報

当レポートは1時間30分前の16:45(UTC)に作成
予報は17日の 18時(UTC)から 18日の 24時(UTC)まで有効
南東の風 12kt、最大25ktの突風を伴う
視程: 7000m
高度4000ftの雲は散在している
高度8000ftの千切れ雲あり
17日の 18時(UTC)から 17日の 22時(UTC)まで一時的に
視程: 3000m
高度3000ftの雲はほとんどない, 積乱雲.
激しい雷雨, 雨, 風塵

TAF: OKBK 171645Z 1718/1824 14012G25KT 7000 SCT040 BKN080 TEMPO 1718/1722 3000 TSRA BLDU FEW030CB

4,000以上の空港の気象観測と天気予報(METAR報とTAF報)

利用可能な観測所は地図上に黄色い丸と赤い丸で示す。

丸の上にカーソルを重ねると観測所名を参照できる。

次にクリックすると気象観測と天気予報を参照できる。

マップの切り替え:黒色「×」印の緑ボタンをクリックして拡大、「-」印の緑ボタンをクリックして縮小、緑色の三角印をクリックして隣りの地図に切り替え


METAR-TAF: